RYR40M LEBB-LEBL
Flight info
| Callsign | RYR40M |
|---|---|
| Flight time | 0h 58m |
| Altitude | 28000 |
| Route | PPN M601 TURPU/N0448F300 M601 GRAUS |
| Aircraft | B738/M-SDE2E3FGHIRWXY/LB1 |
Departure
| Time | 2026-05-05 18:31 |
|---|---|
| Airport | Bilbao Airport (LEBB) |
Arrival
| Time | 2026-05-05 19:29 |
|---|---|
| Airport | Josep Tarradellas Barcelona-El Prat Airport (LEBL) |
| Time | Latitude | Longitude | Altitude | Speed | Heading |
|---|---|---|---|---|---|
| 2026-05-05 17:33 | 43.30424 | -2.90634 | 122 ft | 0 kts | 26° |
| 2026-05-05 18:20 | 43.30405 | -2.90649 | 123 ft | 4 kts | 34° |
| 2026-05-05 18:20 | 43.30384 | -2.90672 | 124 ft | 4 kts | 52° |
| 2026-05-05 18:20 | 43.30374 | -2.90702 | 124 ft | 4 kts | 99° |
| 2026-05-05 18:20 | 43.30375 | -2.90712 | 123 ft | 1 kts | 116° |
| 2026-05-05 18:25 | 43.30346 | -2.90633 | 123 ft | 19 kts | 121° |
| 2026-05-05 18:26 | 43.30298 | -2.90575 | 126 ft | 0 kts | 145° |
| 2026-05-05 18:26 | 43.30289 | -2.90567 | 125 ft | 8 kts | 145° |
| 2026-05-05 18:26 | 43.30214 | -2.90532 | 126 ft | 13 kts | 206° |
| 2026-05-05 18:26 | 43.30134 | -2.90569 | 125 ft | 12 kts | 164° |
| 2026-05-05 18:27 | 43.30082 | -2.90480 | 124 ft | 12 kts | 120° |
| 2026-05-05 18:27 | 43.30040 | -2.90371 | 125 ft | 13 kts | 115° |
| 2026-05-05 18:27 | 43.30002 | -2.90259 | 124 ft | 13 kts | 114° |
| 2026-05-05 18:27 | 43.29965 | -2.90150 | 127 ft | 12 kts | 115° |
| 2026-05-05 18:28 | 43.29886 | -2.89945 | 123 ft | 12 kts | 115° |
| 2026-05-05 18:28 | 43.29851 | -2.89844 | 123 ft | 12 kts | 115° |
| 2026-05-05 18:28 | 43.29809 | -2.89735 | 124 ft | 17 kts | 116° |
| 2026-05-05 18:29 | 43.29730 | -2.89600 | 124 ft | 20 kts | 179° |
| 2026-05-05 18:29 | 43.29649 | -2.89729 | 124 ft | 19 kts | 266° |
| 2026-05-05 18:29 | 43.29672 | -2.89864 | 122 ft | 0 kts | 298° |
| 2026-05-05 18:30 | 43.29742 | -2.90054 | 126 ft | 63 kts | 296° |
| 2026-05-05 18:30 | 43.30042 | -2.90892 | 125 ft | 131 kts | 297° |
| 2026-05-05 18:30 | 43.30487 | -2.92231 | 370 ft | 168 kts | 294° |
| 2026-05-05 18:31 | 43.31021 | -2.93660 | 1111 ft | 172 kts | 296° |
| 2026-05-05 18:31 | 43.31556 | -2.95102 | 2333 ft | 169 kts | 296° |
| 2026-05-05 18:31 | 43.32122 | -2.96632 | 2957 ft | 190 kts | 297° |
| 2026-05-05 18:31 | 43.32800 | -2.98232 | 3393 ft | 200 kts | 308° |
| 2026-05-05 18:32 | 43.33957 | -2.99326 | 3889 ft | 210 kts | 339° |
| 2026-05-05 18:32 | 43.35423 | -2.99601 | 4530 ft | 214 kts | 348° |
| 2026-05-05 18:32 | 43.36682 | -3.00529 | 5210 ft | 209 kts | 305° |
| 2026-05-05 18:32 | 43.37416 | -3.02252 | 5817 ft | 211 kts | 302° |
| 2026-05-05 18:33 | 43.38258 | -3.03920 | 5997 ft | 213 kts | 307° |
| 2026-05-05 18:33 | 43.39164 | -3.05502 | 6032 ft | 213 kts | 308° |
| 2026-05-05 18:33 | 43.40207 | -3.06944 | 6483 ft | 216 kts | 329° |
| 2026-05-05 18:33 | 43.41660 | -3.07383 | 7238 ft | 220 kts | 2° |
| 2026-05-05 18:34 | 43.43125 | -3.06624 | 7848 ft | 235 kts | 35° |
| 2026-05-05 18:34 | 43.44108 | -3.04800 | 8557 ft | 244 kts | 69° |
| 2026-05-05 18:34 | 43.44392 | -3.02462 | 9201 ft | 251 kts | 77° |
| 2026-05-05 18:34 | 43.44888 | -3.00169 | 9863 ft | 251 kts | 61° |
| 2026-05-05 18:35 | 43.45821 | -2.98162 | 10544 ft | 247 kts | 44° |
| 2026-05-05 18:35 | 43.47078 | -2.96566 | 11193 ft | 247 kts | 35° |
| 2026-05-05 18:35 | 43.48416 | -2.95056 | 11824 ft | 251 kts | 35° |
| 2026-05-05 18:35 | 43.49782 | -2.93545 | 12503 ft | 253 kts | 34° |
| 2026-05-05 18:36 | 43.51004 | -2.91773 | 13154 ft | 263 kts | 63° |
| 2026-05-05 18:36 | 43.51300 | -2.89296 | 13825 ft | 271 kts | 98° |
| 2026-05-05 18:36 | 43.50662 | -2.86845 | 14418 ft | 275 kts | 114° |
| 2026-05-05 18:36 | 43.49851 | -2.84425 | 15033 ft | 279 kts | 115° |
| 2026-05-05 18:37 | 43.49027 | -2.82001 | 15724 ft | 281 kts | 114° |
| 2026-05-05 18:37 | 43.48194 | -2.79538 | 16277 ft | 289 kts | 114° |
| 2026-05-05 18:37 | 43.47321 | -2.76931 | 16491 ft | 311 kts | 114° |
| 2026-05-05 18:37 | 43.46392 | -2.74134 | 16681 ft | 333 kts | 114° |
| 2026-05-05 18:38 | 43.45402 | -2.71136 | 16849 ft | 354 kts | 114° |
| 2026-05-05 18:38 | 43.44357 | -2.67961 | 17016 ft | 375 kts | 114° |
| 2026-05-05 18:38 | 43.43255 | -2.64608 | 17196 ft | 393 kts | 114° |
| 2026-05-05 18:38 | 43.42110 | -2.61122 | 17627 ft | 403 kts | 114° |
| 2026-05-05 18:39 | 43.40950 | -2.57591 | 18275 ft | 407 kts | 114° |
| 2026-05-05 18:39 | 43.39775 | -2.54020 | 18847 ft | 411 kts | 114° |
| 2026-05-05 18:39 | 43.38593 | -2.50429 | 19394 ft | 415 kts | 114° |
| 2026-05-05 18:39 | 43.37398 | -2.46805 | 19946 ft | 418 kts | 115° |
| 2026-05-05 18:40 | 43.36191 | -2.43147 | 20502 ft | 422 kts | 115° |
| 2026-05-05 18:40 | 43.34973 | -2.39460 | 21052 ft | 426 kts | 115° |
| 2026-05-05 18:40 | 43.33745 | -2.35745 | 21570 ft | 429 kts | 115° |
| 2026-05-05 18:40 | 43.32501 | -2.31995 | 22098 ft | 433 kts | 115° |
| 2026-05-05 18:41 | 43.31164 | -2.28277 | 22590 ft | 436 kts | 122° |
| 2026-05-05 18:41 | 43.29387 | -2.24904 | 23140 ft | 436 kts | 133° |
| 2026-05-05 18:41 | 43.27241 | -2.21959 | 23639 ft | 437 kts | 142° |
| 2026-05-05 18:41 | 43.24806 | -2.19480 | 24044 ft | 438 kts | 148° |
| 2026-05-05 18:42 | 43.22295 | -2.17088 | 24469 ft | 441 kts | 148° |
| 2026-05-05 18:42 | 43.19768 | -2.14700 | 24904 ft | 443 kts | 148° |
| 2026-05-05 18:42 | 43.17235 | -2.12296 | 25366 ft | 444 kts | 148° |
| 2026-05-05 18:42 | 43.14692 | -2.09866 | 25733 ft | 447 kts | 148° |
| 2026-05-05 18:43 | 43.12135 | -2.07408 | 26098 ft | 451 kts | 147° |
| 2026-05-05 18:43 | 43.09572 | -2.04936 | 26577 ft | 451 kts | 147° |
| 2026-05-05 18:43 | 43.07019 | -2.02469 | 27122 ft | 449 kts | 147° |
| 2026-05-05 18:43 | 43.04470 | -2.00007 | 27647 ft | 447 kts | 147° |
| 2026-05-05 18:44 | 43.02787 | -1.98382 | 28000 ft | 447 kts | 148° |
| 2026-05-05 18:44 | 43.00254 | -1.95941 | 28478 ft | 446 kts | 148° |
| 2026-05-05 18:44 | 42.97715 | -1.93497 | 28943 ft | 447 kts | 148° |
| 2026-05-05 18:44 | 42.94342 | -1.90256 | 29589 ft | 446 kts | 148° |
| 2026-05-05 18:45 | 42.92636 | -1.88617 | 30019 ft | 444 kts | 148° |
| 2026-05-05 18:45 | 42.90087 | -1.86173 | 29965 ft | 450 kts | 148° |
| 2026-05-05 18:45 | 42.85012 | -1.81310 | 29990 ft | 441 kts | 148° |
| 2026-05-05 18:46 | 42.79991 | -1.76511 | 30006 ft | 442 kts | 148° |
| 2026-05-05 18:46 | 42.75059 | -1.71472 | 29981 ft | 449 kts | 139° |
| 2026-05-05 18:47 | 42.71289 | -1.64640 | 29993 ft | 456 kts | 119° |
| 2026-05-05 18:47 | 42.68643 | -1.56781 | 29997 ft | 458 kts | 117° |
| 2026-05-05 18:48 | 42.65953 | -1.49022 | 29990 ft | 456 kts | 118° |
| 2026-05-05 18:48 | 42.63206 | -1.41292 | 29981 ft | 453 kts | 118° |
| 2026-05-05 18:49 | 42.60484 | -1.33616 | 29935 ft | 450 kts | 119° |
| 2026-05-05 18:49 | 42.57750 | -1.25918 | 29957 ft | 450 kts | 119° |
| 2026-05-05 18:50 | 42.55038 | -1.18301 | 29955 ft | 452 kts | 119° |
| 2026-05-05 18:50 | 42.52295 | -1.10608 | 29947 ft | 454 kts | 120° |
| 2026-05-05 18:51 | 42.49530 | -1.02884 | 29943 ft | 456 kts | 120° |
| 2026-05-05 18:51 | 42.46757 | -0.95155 | 29942 ft | 456 kts | 120° |
| 2026-05-05 18:52 | 42.43981 | -0.87430 | 29922 ft | 456 kts | 120° |
| 2026-05-05 18:52 | 42.41207 | -0.79739 | 29918 ft | 453 kts | 120° |
| 2026-05-05 18:53 | 42.38437 | -0.72090 | 29924 ft | 452 kts | 121° |
| 2026-05-05 18:53 | 42.35657 | -0.64430 | 29928 ft | 454 kts | 121° |
| 2026-05-05 18:54 | 42.32867 | -0.56762 | 29932 ft | 456 kts | 121° |
| 2026-05-05 18:54 | 42.30048 | -0.49041 | 29928 ft | 459 kts | 121° |
| 2026-05-05 18:55 | 42.27219 | -0.41304 | 29923 ft | 461 kts | 121° |
| 2026-05-05 18:55 | 42.24381 | -0.33558 | 29925 ft | 460 kts | 121° |
| 2026-05-05 18:56 | 42.21543 | -0.25835 | 29912 ft | 458 kts | 121° |
| 2026-05-05 18:56 | 42.18709 | -0.18151 | 29887 ft | 457 kts | 121° |
| 2026-05-05 18:57 | 42.15867 | -0.10474 | 29914 ft | 459 kts | 121° |
| 2026-05-05 18:57 | 42.13010 | -0.02770 | 29917 ft | 461 kts | 121° |
| 2026-05-05 18:58 | 42.10128 | 0.04981 | 29549 ft | 470 kts | 121° |
| 2026-05-05 18:58 | 42.08670 | 0.08903 | 29267 ft | 468 kts | 121° |
| 2026-05-05 18:58 | 42.07219 | 0.12802 | 28979 ft | 463 kts | 121° |
| 2026-05-05 18:59 | 42.05779 | 0.16661 | 28694 ft | 459 kts | 121° |
| 2026-05-05 18:59 | 42.04343 | 0.20497 | 28434 ft | 458 kts | 121° |
| 2026-05-05 18:59 | 42.02914 | 0.24308 | 28208 ft | 455 kts | 121° |
| 2026-05-05 18:59 | 42.01490 | 0.28100 | 27936 ft | 454 kts | 121° |
| 2026-05-05 19:00 | 42.00066 | 0.31895 | 27665 ft | 452 kts | 121° |
| 2026-05-05 19:00 | 41.98655 | 0.35646 | 27376 ft | 448 kts | 121° |
| 2026-05-05 19:00 | 41.97310 | 0.39414 | 27091 ft | 447 kts | 118° |
| 2026-05-05 19:00 | 41.96202 | 0.43303 | 26831 ft | 444 kts | 116° |
| 2026-05-05 19:01 | 41.94759 | 0.46866 | 26507 ft | 426 kts | 134° |
| 2026-05-05 19:01 | 41.92681 | 0.49551 | 26131 ft | 406 kts | 152° |
| 2026-05-05 19:01 | 41.90278 | 0.51402 | 25819 ft | 393 kts | 159° |
| 2026-05-05 19:01 | 41.87835 | 0.52986 | 25448 ft | 387 kts | 160° |
| 2026-05-05 19:02 | 41.85398 | 0.54488 | 25065 ft | 382 kts | 161° |
| 2026-05-05 19:02 | 41.83007 | 0.55935 | 24723 ft | 382 kts | 161° |
| 2026-05-05 19:02 | 41.80576 | 0.57392 | 24365 ft | 384 kts | 161° |
| 2026-05-05 19:02 | 41.78135 | 0.58839 | 24008 ft | 383 kts | 161° |
| 2026-05-05 19:03 | 41.75703 | 0.60267 | 23644 ft | 380 kts | 161° |
| 2026-05-05 19:03 | 41.73293 | 0.61672 | 23260 ft | 377 kts | 161° |
| 2026-05-05 19:03 | 41.70896 | 0.63070 | 22849 ft | 376 kts | 159° |
| 2026-05-05 19:03 | 41.68766 | 0.65143 | 22383 ft | 387 kts | 135° |
| 2026-05-05 19:04 | 41.67435 | 0.68299 | 21995 ft | 398 kts | 110° |
| 2026-05-05 19:04 | 41.67056 | 0.71986 | 21631 ft | 402 kts | 96° |
| 2026-05-05 19:04 | 41.66833 | 0.75682 | 21357 ft | 397 kts | 99° |
| 2026-05-05 19:04 | 41.66496 | 0.79343 | 21080 ft | 397 kts | 101° |
| 2026-05-05 19:05 | 41.66115 | 0.83009 | 20827 ft | 400 kts | 102° |
| 2026-05-05 19:05 | 41.65716 | 0.86691 | 20567 ft | 399 kts | 102° |
| 2026-05-05 19:05 | 41.65319 | 0.90360 | 20310 ft | 397 kts | 101° |
| 2026-05-05 19:05 | 41.64926 | 0.94001 | 20059 ft | 395 kts | 101° |
| 2026-05-05 19:06 | 41.64537 | 0.97629 | 19810 ft | 393 kts | 101° |
| 2026-05-05 19:06 | 41.64152 | 1.01244 | 19558 ft | 392 kts | 101° |
| 2026-05-05 19:06 | 41.63768 | 1.04839 | 19314 ft | 391 kts | 101° |
| 2026-05-05 19:06 | 41.63384 | 1.08442 | 19070 ft | 390 kts | 101° |
| 2026-05-05 19:07 | 41.63003 | 1.12022 | 18827 ft | 389 kts | 100° |
| 2026-05-05 19:07 | 41.62624 | 1.15590 | 18571 ft | 388 kts | 101° |
| 2026-05-05 19:07 | 41.62241 | 1.19152 | 18339 ft | 387 kts | 101° |
| 2026-05-05 19:07 | 41.61857 | 1.22704 | 18094 ft | 386 kts | 101° |
| 2026-05-05 19:08 | 41.61474 | 1.26248 | 17811 ft | 384 kts | 101° |
| 2026-05-05 19:08 | 41.61097 | 1.29723 | 17489 ft | 381 kts | 101° |
| 2026-05-05 19:08 | 41.60715 | 1.33254 | 17097 ft | 376 kts | 101° |
| 2026-05-05 19:08 | 41.60298 | 1.36631 | 16792 ft | 370 kts | 103° |
| 2026-05-05 19:09 | 41.59770 | 1.40022 | 16476 ft | 367 kts | 105° |
| 2026-05-05 19:09 | 41.59215 | 1.43348 | 16082 ft | 367 kts | 105° |
| 2026-05-05 19:09 | 41.58663 | 1.46618 | 15781 ft | 364 kts | 105° |
| 2026-05-05 19:09 | 41.58109 | 1.49923 | 15535 ft | 365 kts | 105° |
| 2026-05-05 19:10 | 41.57558 | 1.53247 | 15279 ft | 368 kts | 105° |
| 2026-05-05 19:10 | 41.57009 | 1.56590 | 15022 ft | 369 kts | 105° |
| 2026-05-05 19:10 | 41.56455 | 1.59981 | 14776 ft | 368 kts | 105° |
| 2026-05-05 19:10 | 41.55911 | 1.63323 | 14537 ft | 368 kts | 104° |
| 2026-05-05 19:11 | 41.55375 | 1.66612 | 14294 ft | 367 kts | 104° |
| 2026-05-05 19:11 | 41.54835 | 1.69926 | 14048 ft | 366 kts | 104° |
| 2026-05-05 19:11 | 41.54294 | 1.73247 | 13807 ft | 366 kts | 104° |
| 2026-05-05 19:11 | 41.53752 | 1.76561 | 13551 ft | 366 kts | 104° |
| 2026-05-05 19:12 | 41.53209 | 1.79877 | 13284 ft | 365 kts | 104° |
| 2026-05-05 19:12 | 41.52668 | 1.83177 | 13014 ft | 363 kts | 104° |
| 2026-05-05 19:12 | 41.52128 | 1.86467 | 12744 ft | 362 kts | 104° |
| 2026-05-05 19:12 | 41.51590 | 1.89730 | 12485 ft | 360 kts | 104° |
| 2026-05-05 19:13 | 41.51053 | 1.92985 | 12234 ft | 357 kts | 103° |
| 2026-05-05 19:13 | 41.50522 | 1.96200 | 11973 ft | 354 kts | 103° |
| 2026-05-05 19:13 | 41.49992 | 1.99398 | 11714 ft | 351 kts | 103° |
| 2026-05-05 19:13 | 41.49467 | 2.02563 | 11454 ft | 348 kts | 103° |
| 2026-05-05 19:14 | 41.48945 | 2.05703 | 11215 ft | 345 kts | 103° |
| 2026-05-05 19:14 | 41.48427 | 2.08819 | 10935 ft | 343 kts | 103° |
| 2026-05-05 19:14 | 41.47909 | 2.11920 | 10686 ft | 342 kts | 103° |
| 2026-05-05 19:14 | 41.47394 | 2.15003 | 10470 ft | 339 kts | 103° |
| 2026-05-05 19:15 | 41.46893 | 2.18004 | 10413 ft | 326 kts | 103° |
| 2026-05-05 19:15 | 41.46407 | 2.20908 | 10286 ft | 317 kts | 103° |
| 2026-05-05 19:15 | 41.45933 | 2.23731 | 10169 ft | 308 kts | 103° |
| 2026-05-05 19:15 | 41.45471 | 2.26480 | 10027 ft | 300 kts | 103° |
| 2026-05-05 19:16 | 41.45047 | 2.29183 | 9755 ft | 298 kts | 96° |
| 2026-05-05 19:16 | 41.45286 | 2.31905 | 9352 ft | 299 kts | 70° |
| 2026-05-05 19:16 | 41.46102 | 2.34450 | 8987 ft | 298 kts | 64° |
| 2026-05-05 19:16 | 41.46977 | 2.36927 | 8579 ft | 294 kts | 64° |
| 2026-05-05 19:17 | 41.47841 | 2.39377 | 8199 ft | 290 kts | 64° |
| 2026-05-05 19:17 | 41.48682 | 2.41797 | 7819 ft | 285 kts | 64° |
| 2026-05-05 19:17 | 41.49490 | 2.44148 | 7446 ft | 280 kts | 64° |
| 2026-05-05 19:17 | 41.50295 | 2.46497 | 7375 ft | 269 kts | 64° |
| 2026-05-05 19:18 | 41.51058 | 2.48735 | 7295 ft | 261 kts | 64° |
| 2026-05-05 19:18 | 41.51794 | 2.50894 | 7120 ft | 257 kts | 64° |
| 2026-05-05 19:18 | 41.52544 | 2.53096 | 6848 ft | 258 kts | 64° |
| 2026-05-05 19:18 | 41.53287 | 2.55267 | 6613 ft | 256 kts | 64° |
| 2026-05-05 19:19 | 41.54027 | 2.57386 | 6398 ft | 254 kts | 64° |
| 2026-05-05 19:19 | 41.54758 | 2.59520 | 6164 ft | 252 kts | 69° |
| 2026-05-05 19:19 | 41.54909 | 2.61827 | 5826 ft | 254 kts | 107° |
| 2026-05-05 19:19 | 41.53994 | 2.63769 | 5543 ft | 248 kts | 143° |
| 2026-05-05 19:20 | 41.52494 | 2.64794 | 5272 ft | 241 kts | 170° |
| 2026-05-05 19:20 | 41.50852 | 2.64847 | 4995 ft | 234 kts | 197° |
| 2026-05-05 19:20 | 41.49411 | 2.63946 | 4751 ft | 228 kts | 220° |
| 2026-05-05 19:20 | 41.48402 | 2.62359 | 4453 ft | 224 kts | 244° |
| 2026-05-05 19:21 | 41.47784 | 2.60480 | 4183 ft | 219 kts | 249° |
| 2026-05-05 19:21 | 41.47183 | 2.58622 | 4002 ft | 215 kts | 247° |
| 2026-05-05 19:21 | 41.46562 | 2.56817 | 3999 ft | 216 kts | 247° |
| 2026-05-05 19:21 | 41.45919 | 2.54966 | 3996 ft | 222 kts | 247° |
| 2026-05-05 19:22 | 41.45265 | 2.53079 | 3992 ft | 225 kts | 247° |
| 2026-05-05 19:22 | 41.44613 | 2.51193 | 3982 ft | 224 kts | 247° |
| 2026-05-05 19:22 | 41.43963 | 2.49311 | 3985 ft | 222 kts | 247° |
| 2026-05-05 19:22 | 41.43320 | 2.47452 | 4001 ft | 219 kts | 247° |
| 2026-05-05 19:23 | 41.42684 | 2.45608 | 4002 ft | 219 kts | 247° |
| 2026-05-05 19:23 | 41.42041 | 2.43744 | 3995 ft | 223 kts | 247° |
| 2026-05-05 19:23 | 41.41397 | 2.41881 | 3975 ft | 217 kts | 247° |
| 2026-05-05 19:23 | 41.40785 | 2.40106 | 3892 ft | 204 kts | 247° |
| 2026-05-05 19:24 | 41.40211 | 2.38442 | 3562 ft | 199 kts | 248° |
| 2026-05-05 19:24 | 41.39626 | 2.36741 | 3107 ft | 200 kts | 248° |
| 2026-05-05 19:24 | 41.39036 | 2.35105 | 2703 ft | 197 kts | 247° |
| 2026-05-05 19:24 | 41.38473 | 2.33421 | 2345 ft | 196 kts | 248° |
| 2026-05-05 19:25 | 41.37915 | 2.31768 | 2324 ft | 201 kts | 248° |
| 2026-05-05 19:25 | 41.37335 | 2.30084 | 2281 ft | 199 kts | 247° |
| 2026-05-05 19:25 | 41.36755 | 2.28327 | 2309 ft | 219 kts | 249° |
| 2026-05-05 19:25 | 41.36094 | 2.26409 | 2287 ft | 230 kts | 246° |
| 2026-05-05 19:26 | 41.35428 | 2.24551 | 2261 ft | 215 kts | 247° |
| 2026-05-05 19:26 | 41.34821 | 2.22779 | 2002 ft | 204 kts | 247° |
| 2026-05-05 19:26 | 41.34249 | 2.21102 | 1751 ft | 194 kts | 248° |
| 2026-05-05 19:26 | 41.33702 | 2.19507 | 1479 ft | 184 kts | 247° |
| 2026-05-05 19:27 | 41.33196 | 2.18034 | 1259 ft | 167 kts | 247° |
| 2026-05-05 19:27 | 41.32737 | 2.16693 | 1073 ft | 151 kts | 247° |
| 2026-05-05 19:27 | 41.32321 | 2.15479 | 877 ft | 135 kts | 248° |
| 2026-05-05 19:27 | 41.31934 | 2.14401 | 611 ft | 127 kts | 245° |
| 2026-05-05 19:28 | 41.31560 | 2.13298 | 386 ft | 133 kts | 243° |
| 2026-05-05 19:28 | 41.31179 | 2.12167 | 250 ft | 135 kts | 243° |
| 2026-05-05 19:28 | 41.30781 | 2.11001 | 127 ft | 140 kts | 244° |
| 2026-05-05 19:28 | 41.30398 | 2.09836 | 19 ft | 137 kts | 239° |
| 2026-05-05 19:29 | 41.30074 | 2.08917 | 18 ft | 79 kts | 245° |
| 2026-05-05 19:29 | 41.29929 | 2.08437 | 24 ft | 47 kts | 261° |
| 2026-05-05 19:29 | 41.29941 | 2.08091 | 17 ft | 23 kts | 277° |
| 2026-05-05 19:29 | 41.29947 | 2.08064 | 17 ft | 0 kts | 303° |
| 2026-05-05 19:31 | 41.29965 | 2.08040 | 18 ft | 6 kts | 326° |
| 2026-05-05 19:31 | 41.29993 | 2.07993 | 17 ft | 9 kts | 279° |
| 2026-05-05 19:32 | 41.29972 | 2.07889 | 16 ft | 13 kts | 246° |
| 2026-05-05 19:32 | 41.29939 | 2.07784 | 15 ft | 12 kts | 257° |
| 2026-05-05 19:32 | 41.29982 | 2.07704 | 15 ft | 0 kts | 332° |
| 2026-05-05 19:33 | 41.29993 | 2.07697 | 16 ft | 3 kts | 335° |
| 2026-05-05 19:33 | 41.30003 | 2.07691 | 16 ft | 2 kts | 332° |
| 2026-05-05 19:33 | 41.30034 | 2.07654 | 17 ft | 7 kts | 317° |
| 2026-05-05 19:33 | 41.30064 | 2.07606 | 19 ft | 7 kts | 305° |
| 2026-05-05 19:34 | 41.30091 | 2.07555 | 20 ft | 7 kts | 305° |
| 2026-05-05 19:34 | 41.30099 | 2.07540 | 20 ft | 0 kts | 303° |